createdAt,value
2023-03-08T00:01:33.169Z,100.00
2023-03-08T00:04:01.684Z,100.00
2023-03-08T00:06:29.216Z,100.00
2023-03-08T00:08:59.584Z,100.00
2023-03-08T00:11:28.453Z,100.00
2023-03-08T00:13:56.806Z,100.00
2023-03-08T00:16:24.604Z,100.00
2023-03-08T00:18:52.518Z,100.00
2023-03-08T00:21:21.517Z,100.00
2023-03-08T00:23:53.959Z,100.00
2023-03-08T00:26:21.562Z,100.00
2023-03-08T00:28:49.380Z,100.00
2023-03-08T00:31:16.900Z,100.00
2023-03-08T00:33:44.820Z,100.00
2023-03-08T00:36:17.845Z,100.00
2023-03-08T00:38:46.834Z,100.00
2023-03-08T00:41:14.681Z,100.00
2023-03-08T00:43:43.806Z,100.00
2023-03-08T00:46:12.353Z,100.00
2023-03-08T00:48:41.052Z,100.00
2023-03-08T00:51:12.229Z,100.00
2023-03-08T00:53:39.668Z,100.00
2023-03-08T00:56:07.743Z,100.00
2023-03-08T00:58:37.969Z,100.00
2023-03-08T01:01:06.980Z,100.00
2023-03-08T01:03:35.555Z,100.00
2023-03-08T01:06:09.431Z,100.00
2023-03-08T01:08:40.152Z,100.00
2023-03-08T01:11:07.982Z,100.00
2023-03-08T01:13:36.668Z,100.00
2023-03-08T01:16:04.327Z,100.00
2023-03-08T01:18:31.922Z,100.00
2023-03-08T01:21:03.125Z,100.00
2023-03-08T01:23:31.900Z,100.00
2023-03-08T01:26:01.629Z,100.00
2023-03-08T01:28:30.220Z,100.00
2023-03-08T01:31:09.375Z,100.00
2023-03-08T01:33:39.669Z,100.00
2023-03-08T01:36:09.398Z,100.00
2023-03-08T01:38:37.587Z,100.00
2023-03-08T01:41:07.309Z,100.00
2023-03-08T01:43:39.098Z,100.00
2023-03-08T01:46:43.300Z,100.00
2023-03-08T01:49:27.396Z,100.00
2023-03-08T01:52:15.542Z,100.00
2023-03-08T01:54:48.862Z,100.00
2023-03-08T01:57:40.088Z,100.00
2023-03-08T02:00:17.368Z,100.00
2023-03-08T02:02:51.994Z,100.00
2023-03-08T02:05:21.969Z,100.00
2023-03-08T02:07:49.531Z,100.00
2023-03-08T02:10:18.292Z,100.00
2023-03-08T02:12:49.891Z,100.00
2023-03-08T02:15:21.340Z,100.00
2023-03-08T02:17:48.795Z,100.00
2023-03-08T02:20:28.171Z,100.00
2023-03-08T02:22:55.588Z,100.00
2023-03-08T02:25:25.839Z,100.00
2023-03-08T02:27:54.858Z,100.00
2023-03-08T02:30:26.364Z,100.00
2023-03-08T02:32:55.494Z,100.00
2023-03-08T02:35:23.124Z,100.00
2023-03-08T02:37:50.517Z,100.00
2023-03-08T02:40:18.588Z,100.00
2023-03-08T02:42:46.758Z,100.00
2023-03-08T02:45:14.262Z,100.00
2023-03-08T02:47:43.854Z,100.00
2023-03-08T02:50:11.468Z,100.00
2023-03-08T02:52:40.269Z,100.00
2023-03-08T02:55:08.326Z,100.00
2023-03-08T02:57:35.962Z,100.00
2023-03-08T03:00:04.667Z,100.00
2023-03-08T03:02:34.685Z,100.00
2023-03-08T03:05:13.154Z,100.00
2023-03-08T03:07:42.419Z,100.00
2023-03-08T03:10:12.710Z,100.00
2023-03-08T03:12:42.438Z,100.00
2023-03-08T03:15:11.911Z,100.00
2023-03-08T03:17:41.114Z,100.00
2023-03-08T03:20:10.241Z,100.00
2023-03-08T03:22:39.927Z,100.00
2023-03-08T03:25:07.775Z,100.00
2023-03-08T03:27:35.455Z,100.00
2023-03-08T03:30:04.482Z,100.00
2023-03-08T03:32:32.229Z,100.00
2023-03-08T03:35:01.569Z,100.00
2023-03-08T03:37:29.413Z,100.00
2023-03-08T03:39:56.823Z,100.00
2023-03-08T03:42:24.324Z,100.00
2023-03-08T03:44:51.729Z,100.00
2023-03-08T03:47:19.188Z,100.00
2023-03-08T03:49:46.581Z,100.00
2023-03-08T03:52:15.019Z,100.00
2023-03-08T03:54:42.511Z,100.00
2023-03-08T03:57:09.997Z,100.00
2023-03-08T03:59:39.121Z,100.00
2023-03-08T04:02:06.609Z,100.00
2023-03-08T04:04:34.405Z,100.00
2023-03-08T04:07:01.800Z,100.00
2023-03-08T04:09:33.440Z,100.00
2023-03-08T04:12:05.711Z,100.00
2023-03-08T04:14:33.346Z,100.00
2023-03-08T04:17:01.704Z,100.00
2023-03-08T04:19:29.900Z,100.00
2023-03-08T04:21:57.367Z,100.00
2023-03-08T04:24:27.682Z,100.00
2023-03-08T04:26:55.142Z,100.00
2023-03-08T04:29:23.984Z,100.00
2023-03-08T04:31:51.740Z,100.00
2023-03-08T04:34:19.249Z,100.00
2023-03-08T04:36:46.808Z,100.00
2023-03-08T04:39:14.223Z,100.00
2023-03-08T04:41:41.825Z,100.00
2023-03-08T04:44:09.248Z,100.00
2023-03-08T04:46:36.732Z,100.00
2023-03-08T04:49:04.247Z,100.00
2023-03-08T04:51:31.612Z,100.00
2023-03-08T04:53:59.152Z,100.00
2023-03-08T04:56:26.910Z,100.00
2023-03-08T04:58:57.826Z,100.00
2023-03-08T05:01:26.188Z,100.00
2023-03-08T05:03:54.233Z,100.00
2023-03-08T05:06:24.882Z,100.00
2023-03-08T05:08:53.605Z,100.00
2023-03-08T05:11:23.977Z,100.00
2023-03-08T05:13:54.849Z,100.00
2023-03-08T05:16:22.898Z,100.00
2023-03-08T05:18:50.929Z,100.00
2023-03-08T05:21:21.203Z,100.00
2023-03-08T05:23:48.697Z,100.00
2023-03-08T05:26:20.400Z,100.00
2023-03-08T05:28:47.824Z,100.00
2023-03-08T05:31:18.133Z,100.00
2023-03-08T05:33:51.002Z,100.00
2023-03-08T05:36:19.606Z,100.00
2023-03-08T05:38:48.194Z,100.00
2023-03-08T05:41:16.634Z,100.00
2023-03-08T05:43:46.632Z,100.00
2023-03-08T05:46:19.624Z,100.00
2023-03-08T05:48:47.314Z,100.00
2023-03-08T05:51:17.230Z,100.00
2023-03-08T05:53:45.130Z,100.00
2023-03-08T05:56:17.080Z,100.00
2023-03-08T05:58:47.744Z,100.00
2023-03-08T06:01:24.859Z,100.00
2023-03-08T06:03:55.712Z,100.00
2023-03-08T06:06:26.303Z,100.00
2023-03-08T06:08:56.312Z,100.00
2023-03-08T06:11:26.107Z,100.00
2023-03-08T06:13:54.565Z,100.00
2023-03-08T06:16:21.998Z,100.00
2023-03-08T06:18:50.138Z,100.00
2023-03-08T06:21:19.565Z,100.00
2023-03-08T06:23:47.566Z,100.00
2023-03-08T06:26:16.651Z,100.00
2023-03-08T06:28:44.587Z,100.00
2023-03-08T06:31:16.746Z,100.00
2023-03-08T06:33:44.391Z,100.00
2023-03-08T06:36:14.530Z,100.00
2023-03-08T06:38:42.998Z,100.00
2023-03-08T06:41:16.425Z,100.00
2023-03-08T06:43:44.406Z,100.00
2023-03-08T06:46:14.885Z,100.00
2023-03-08T06:48:42.453Z,100.00
2023-03-08T06:51:10.556Z,100.00
2023-03-08T06:53:40.664Z,100.00
2023-03-08T06:56:12.239Z,100.00
2023-03-08T06:58:39.924Z,100.00
2023-03-08T07:01:11.220Z,100.00
2023-03-08T07:03:39.165Z,100.00
2023-03-08T07:06:10.685Z,100.00
2023-03-08T07:08:39.738Z,100.00
2023-03-08T07:11:09.885Z,100.00
2023-03-08T07:13:39.021Z,100.00
2023-03-08T07:16:11.990Z,100.00
2023-03-08T07:18:40.421Z,100.00
2023-03-08T07:21:12.918Z,100.00
2023-03-08T07:23:41.551Z,100.00
2023-03-08T07:26:11.109Z,100.00
2023-03-08T07:28:39.273Z,100.00
2023-03-08T07:31:10.187Z,100.00
2023-03-08T07:33:38.592Z,100.00
2023-03-08T07:36:07.123Z,100.00
2023-03-08T07:38:34.940Z,100.00
2023-03-08T07:41:02.421Z,100.00
2023-03-08T07:43:30.429Z,100.00
2023-03-08T07:46:02.701Z,100.00
2023-03-08T07:48:32.134Z,100.00
2023-03-08T07:51:08.930Z,100.00
2023-03-08T07:53:38.212Z,100.00
2023-03-08T07:56:07.104Z,100.00
2023-03-08T07:58:34.759Z,100.00
2023-03-08T08:01:02.226Z,100.00
2023-03-08T08:03:30.154Z,100.00
2023-03-08T08:06:01.463Z,100.00
2023-03-08T08:08:29.136Z,100.00
2023-03-08T08:11:03.334Z,100.00
2023-03-08T08:13:34.203Z,100.00
2023-03-08T08:16:03.067Z,100.00
2023-03-08T08:18:32.244Z,100.00
2023-03-08T08:21:04.420Z,100.00
2023-03-08T08:23:33.059Z,100.00
2023-03-08T08:26:04.132Z,100.00
2023-03-08T08:28:31.829Z,100.00
2023-03-08T08:31:04.222Z,100.00
2023-03-08T08:33:33.767Z,100.00
2023-03-08T08:36:04.981Z,100.00
2023-03-08T08:38:32.998Z,100.00
2023-03-08T08:41:01.436Z,100.00
2023-03-08T08:43:29.899Z,100.00
2023-03-08T08:45:59.189Z,100.00
2023-03-08T08:48:27.728Z,100.00
2023-03-08T08:50:55.825Z,100.00
2023-03-08T08:53:23.301Z,100.00
2023-03-08T08:55:50.858Z,100.00
2023-03-08T08:58:19.285Z,100.00
2023-03-08T09:00:50.420Z,100.00
2023-03-08T09:03:17.988Z,100.00
2023-03-08T09:05:47.572Z,100.00
2023-03-08T09:08:15.771Z,100.00
2023-03-08T09:10:43.289Z,100.00
2023-03-08T09:13:12.055Z,100.00
2023-03-08T09:15:40.183Z,100.00
2023-03-08T09:18:08.240Z,100.00
2023-03-08T09:20:37.750Z,100.00
2023-03-08T09:23:05.182Z,100.00
2023-03-08T09:25:32.847Z,100.00
2023-03-08T09:28:01.876Z,100.00
2023-03-08T09:30:30.523Z,100.00
2023-03-08T09:33:02.329Z,100.00
2023-03-08T09:35:30.941Z,100.00
2023-03-08T09:37:59.127Z,100.00
2023-03-08T09:40:27.381Z,100.00
2023-03-08T09:43:05.459Z,99.52
2023-03-08T09:45:35.597Z,97.28
2023-03-08T09:48:14.788Z,97.71
2023-03-08T09:50:51.768Z,97.57
2023-03-08T09:53:39.562Z,96.25
2023-03-08T09:56:31.774Z,96.01
2023-03-08T09:59:13.473Z,94.28
2023-03-08T10:01:40.916Z,93.97
2023-03-08T10:04:14.638Z,93.69
2023-03-08T10:07:06.949Z,92.63
2023-03-08T10:09:42.106Z,93.85
2023-03-08T10:12:15.600Z,94.35
2023-03-08T10:14:49.427Z,93.61
2023-03-08T10:17:21.712Z,96.45
2023-03-08T10:20:15.048Z,93.02
2023-03-08T10:22:43.154Z,89.66
2023-03-08T10:25:27.104Z,88.57
2023-03-08T10:27:57.854Z,89.56
2023-03-08T10:30:48.168Z,89.26
2023-03-08T10:33:19.405Z,87.77
2023-03-08T10:36:12.845Z,88.33
2023-03-08T10:38:40.319Z,87.97
2023-03-08T10:41:12.979Z,88.13
2023-03-08T10:43:53.247Z,88.22
2023-03-08T10:46:23.956Z,87.26
2023-03-08T10:48:51.726Z,86.08
2023-03-08T10:51:29.512Z,86.16
2023-03-08T10:54:00.210Z,84.14
2023-03-08T10:56:44.974Z,83.80
2023-03-08T10:59:22.219Z,82.10
2023-03-08T11:01:55.510Z,81.98
2023-03-08T11:04:25.452Z,80.68
2023-03-08T11:06:52.851Z,79.21
2023-03-08T11:09:27.878Z,81.60
2023-03-08T11:11:57.053Z,80.26
2023-03-08T11:14:25.675Z,79.75
2023-03-08T11:17:08.289Z,79.98
2023-03-08T11:20:01.209Z,80.64
2023-03-08T11:22:37.687Z,78.73
2023-03-08T11:25:21.371Z,79.52
2023-03-08T11:27:57.869Z,77.44
2023-03-08T11:30:47.428Z,79.27
2023-03-08T11:33:35.279Z,76.36
2023-03-08T11:36:13.037Z,75.57
2023-03-08T11:38:42.169Z,76.03
2023-03-08T11:41:28.926Z,71.55
2023-03-08T11:44:14.527Z,69.46
2023-03-08T11:46:58.626Z,68.34
2023-03-08T11:49:47.787Z,64.83
2023-03-08T11:52:39.287Z,64.64
2023-03-08T11:55:44.382Z,63.15
2023-03-08T11:58:28.377Z,61.20
2023-03-08T12:01:01.592Z,64.37
2023-03-08T12:03:37.027Z,63.34
2023-03-08T12:06:28.357Z,62.88
2023-03-08T12:09:27.351Z,62.70
2023-03-08T12:12:11.519Z,60.83
2023-03-08T12:15:03.145Z,62.10
2023-03-08T12:17:44.282Z,60.78
2023-03-08T12:20:20.313Z,60.58
2023-03-08T12:22:59.803Z,60.14
2023-03-08T12:25:34.958Z,60.77
2023-03-08T12:28:26.520Z,61.66
2023-03-08T12:31:27.397Z,62.23
2023-03-08T12:33:58.223Z,63.51
2023-03-08T12:36:41.613Z,62.97
2023-03-08T12:39:29.334Z,65.47
2023-03-08T12:42:13.451Z,64.03
2023-03-08T12:44:42.899Z,63.34
2023-03-08T12:47:13.899Z,61.36
2023-03-08T12:49:46.524Z,60.60
2023-03-08T12:52:18.180Z,57.62
2023-03-08T12:55:03.305Z,57.58
2023-03-08T12:57:36.442Z,56.94
2023-03-08T13:00:20.208Z,55.33
2023-03-08T13:02:58.404Z,56.42
2023-03-08T13:05:30.717Z,55.78
2023-03-08T13:08:04.732Z,54.99
2023-03-08T13:10:39.076Z,55.08
2023-03-08T13:13:09.574Z,54.60
2023-03-08T13:15:40.019Z,54.36
2023-03-08T13:18:19.107Z,54.54
2023-03-08T13:20:46.691Z,52.27
2023-03-08T13:23:14.042Z,51.56
2023-03-08T13:26:14.577Z,51.06
2023-03-08T13:28:48.048Z,49.68
2023-03-08T13:31:19.684Z,48.89
2023-03-08T13:33:55.457Z,50.77
2023-03-08T13:36:24.958Z,49.52
2023-03-08T13:39:06.933Z,49.03
2023-03-08T13:41:43.850Z,49.46
2023-03-08T13:44:21.872Z,49.51
2023-03-08T13:46:52.712Z,50.55
2023-03-08T13:49:33.579Z,50.48
2023-03-08T13:52:04.353Z,50.83
2023-03-08T13:54:36.263Z,50.87
2023-03-08T13:57:07.592Z,52.96
2023-03-08T13:59:38.055Z,52.36
2023-03-08T14:02:19.732Z,53.52
2023-03-08T14:04:47.450Z,53.52
2023-03-08T14:07:22.271Z,53.99
2023-03-08T14:09:50.032Z,53.48
2023-03-08T14:12:20.499Z,53.53
2023-03-08T14:15:07.247Z,54.34
2023-03-08T14:17:36.593Z,54.63
2023-03-08T14:20:17.216Z,54.84
2023-03-08T14:22:55.011Z,56.17
2023-03-08T14:25:29.530Z,56.30
2023-03-08T14:27:59.000Z,56.89
2023-03-08T14:30:30.954Z,57.46
2023-03-08T14:33:03.166Z,56.78
2023-03-08T14:35:35.370Z,56.21
2023-03-08T14:38:04.100Z,57.10
2023-03-08T14:40:36.243Z,56.91
2023-03-08T14:43:14.784Z,56.37
2023-03-08T14:45:57.694Z,56.47
2023-03-08T14:48:33.723Z,56.74
2023-03-08T14:51:06.010Z,56.05
2023-03-08T14:53:41.581Z,57.86
2023-03-08T14:56:15.479Z,56.88
2023-03-08T14:58:50.705Z,56.71
2023-03-08T15:01:26.521Z,56.58
2023-03-08T15:03:54.087Z,57.17
2023-03-08T15:06:25.301Z,56.45
2023-03-08T15:08:53.428Z,55.74
2023-03-08T15:11:21.167Z,56.21
2023-03-08T15:13:48.549Z,56.26
2023-03-08T15:16:17.018Z,56.16
2023-03-08T15:18:44.506Z,55.70
2023-03-08T15:21:20.940Z,55.61
2023-03-08T15:23:49.781Z,57.10
2023-03-08T15:26:31.659Z,58.84
2023-03-08T15:29:06.347Z,60.32
2023-03-08T15:31:34.983Z,61.33
2023-03-08T15:34:02.497Z,61.75
2023-03-08T15:36:34.851Z,62.05
2023-03-08T15:39:04.666Z,62.69
2023-03-08T15:41:33.234Z,63.45
2023-03-08T15:44:00.741Z,64.50
2023-03-08T15:46:28.917Z,63.12
2023-03-08T15:48:56.946Z,63.32
2023-03-08T15:51:30.441Z,62.21
2023-03-08T15:53:57.933Z,60.99
2023-03-08T15:56:25.868Z,60.84
2023-03-08T15:58:54.943Z,60.85
2023-03-08T16:01:26.993Z,61.72
2023-03-08T16:03:56.449Z,62.47
2023-03-08T16:06:25.041Z,63.95
2023-03-08T16:08:53.386Z,64.61
2023-03-08T16:11:23.538Z,67.18
2023-03-08T16:13:52.710Z,69.35
2023-03-08T16:16:20.614Z,70.98
2023-03-08T16:18:49.038Z,72.91
2023-03-08T16:21:17.153Z,74.69
2023-03-08T16:23:44.765Z,76.14
2023-03-08T16:26:16.819Z,76.59
2023-03-08T16:28:47.184Z,77.83
2023-03-08T16:31:16.470Z,78.42
2023-03-08T16:33:44.436Z,79.81
2023-03-08T16:36:12.868Z,80.67
2023-03-08T16:38:43.614Z,81.23
2023-03-08T16:41:13.909Z,81.40
2023-03-08T16:43:47.950Z,83.44
2023-03-08T16:46:19.273Z,83.97
2023-03-08T16:48:53.550Z,84.02
2023-03-08T16:51:24.612Z,84.54
2023-03-08T16:53:52.048Z,84.36
2023-03-08T16:56:26.203Z,84.80
2023-03-08T16:58:56.283Z,84.51
2023-03-08T17:01:27.189Z,85.85
2023-03-08T17:03:56.441Z,86.42
2023-03-08T17:06:26.554Z,87.16
2023-03-08T17:08:57.790Z,87.65
2023-03-08T17:11:28.235Z,89.09
2023-03-08T17:14:02.387Z,89.68
2023-03-08T17:16:35.760Z,89.58
2023-03-08T17:19:05.378Z,89.79
2023-03-08T17:21:38.099Z,90.81
2023-03-08T17:24:13.990Z,90.51
2023-03-08T17:26:47.613Z,90.59
2023-03-08T17:29:15.949Z,90.99
2023-03-08T17:31:43.630Z,90.91
2023-03-08T17:34:11.301Z,91.54
2023-03-08T17:36:39.893Z,92.06
2023-03-08T17:39:07.671Z,91.56
2023-03-08T17:41:38.752Z,91.99
2023-03-08T17:44:06.559Z,91.65
2023-03-08T17:46:34.035Z,92.84
2023-03-08T17:49:01.449Z,92.58
2023-03-08T17:51:31.523Z,93.24
2023-03-08T17:54:01.343Z,93.24
2023-03-08T17:56:31.745Z,93.64
2023-03-08T17:59:03.773Z,94.27
2023-03-08T18:01:32.051Z,95.12
2023-03-08T18:04:00.141Z,95.46
2023-03-08T18:06:30.611Z,96.03
2023-03-08T18:08:59.752Z,96.36
2023-03-08T18:11:28.313Z,96.69
2023-03-08T18:13:56.575Z,96.91
2023-03-08T18:16:24.248Z,97.34
2023-03-08T18:18:51.844Z,98.73
2023-03-08T18:21:20.917Z,99.20
2023-03-08T18:23:48.890Z,100.00
2023-03-08T18:26:18.609Z,100.00
2023-03-08T18:28:46.732Z,100.00
2023-03-08T18:31:17.310Z,100.00
2023-03-08T18:33:46.152Z,100.00
2023-03-08T18:36:13.604Z,100.00
2023-03-08T18:38:44.639Z,100.00
2023-03-08T18:41:17.817Z,100.00
2023-03-08T18:43:45.531Z,100.00
2023-03-08T18:46:14.353Z,100.00
2023-03-08T18:48:42.120Z,100.00
2023-03-08T18:51:09.879Z,100.00
2023-03-08T18:53:39.091Z,100.00
2023-03-08T18:56:06.850Z,100.00
2023-03-08T18:58:34.985Z,100.00
2023-03-08T19:01:10.980Z,100.00
2023-03-08T19:03:38.884Z,100.00
2023-03-08T19:06:06.700Z,100.00
2023-03-08T19:08:35.359Z,100.00
2023-03-08T19:11:18.153Z,100.00
2023-03-08T19:13:48.069Z,100.00
2023-03-08T19:16:21.490Z,100.00
2023-03-08T19:18:51.041Z,100.00
2023-03-08T19:21:27.165Z,100.00
2023-03-08T19:23:55.231Z,100.00
2023-03-08T19:26:38.099Z,100.00
2023-03-08T19:29:24.683Z,100.00
2023-03-08T19:32:03.861Z,100.00
2023-03-08T19:34:36.921Z,100.00
2023-03-08T19:37:06.341Z,100.00
2023-03-08T19:39:36.922Z,100.00
2023-03-08T19:42:07.132Z,100.00
2023-03-08T19:44:35.428Z,100.00
2023-03-08T19:47:04.739Z,100.00
2023-03-08T19:49:35.518Z,100.00
2023-03-08T19:52:05.855Z,100.00
2023-03-08T19:54:34.402Z,100.00
2023-03-08T19:57:03.053Z,100.00
2023-03-08T19:59:31.881Z,100.00
2023-03-08T20:02:00.988Z,100.00
2023-03-08T20:04:29.451Z,100.00
2023-03-08T20:07:01.717Z,100.00
2023-03-08T20:09:29.510Z,100.00
2023-03-08T20:12:00.114Z,100.00
2023-03-08T20:14:29.477Z,100.00
2023-03-08T20:16:59.193Z,100.00
2023-03-08T20:19:36.714Z,100.00
2023-03-08T20:22:04.813Z,100.00
2023-03-08T20:24:35.392Z,100.00
2023-03-08T20:27:04.245Z,100.00
2023-03-08T20:29:31.749Z,100.00
2023-03-08T20:31:59.169Z,100.00
2023-03-08T20:34:27.596Z,100.00
2023-03-08T20:36:56.306Z,100.00
2023-03-08T20:39:23.843Z,100.00
2023-03-08T20:41:51.200Z,100.00
2023-03-08T20:44:18.777Z,100.00
2023-03-08T20:46:46.271Z,100.00
2023-03-08T20:49:16.896Z,100.00
2023-03-08T20:51:44.616Z,100.00
2023-03-08T20:54:12.596Z,100.00
2023-03-08T20:56:41.371Z,100.00
2023-03-08T20:59:08.934Z,100.00
2023-03-08T21:01:42.110Z,100.00
2023-03-08T21:04:09.645Z,100.00
2023-03-08T21:06:38.718Z,100.00
2023-03-08T21:09:06.426Z,100.00
2023-03-08T21:11:34.031Z,100.00
2023-03-08T21:14:01.522Z,100.00
2023-03-08T21:16:30.177Z,100.00
2023-03-08T21:18:59.971Z,100.00
2023-03-08T21:21:38.400Z,100.00
2023-03-08T21:24:24.114Z,100.00
2023-03-08T21:26:52.254Z,100.00
2023-03-08T21:29:21.227Z,100.00
2023-03-08T21:31:50.857Z,100.00
2023-03-08T21:34:20.247Z,100.00
2023-03-08T21:36:48.274Z,100.00
2023-03-08T21:39:16.431Z,100.00
2023-03-08T21:41:46.722Z,100.00
2023-03-08T21:44:19.314Z,100.00
2023-03-08T21:46:49.753Z,100.00
2023-03-08T21:49:21.832Z,100.00
2023-03-08T21:51:49.893Z,100.00
2023-03-08T21:54:18.891Z,100.00
2023-03-08T21:56:47.227Z,100.00
2023-03-08T21:59:16.778Z,100.00
2023-03-08T22:01:48.415Z,100.00
2023-03-08T22:04:17.299Z,100.00
2023-03-08T22:06:44.721Z,100.00
2023-03-08T22:09:14.015Z,100.00
2023-03-08T22:11:41.709Z,100.00
2023-03-08T22:14:10.568Z,100.00
2023-03-08T22:16:40.062Z,100.00
2023-03-08T22:19:07.635Z,100.00
2023-03-08T22:21:35.365Z,100.00
2023-03-08T22:24:03.040Z,100.00
2023-03-08T22:26:31.163Z,100.00
2023-03-08T22:29:00.255Z,100.00
2023-03-08T22:31:29.864Z,100.00
2023-03-08T22:33:58.901Z,100.00
2023-03-08T22:36:26.649Z,100.00
2023-03-08T22:38:54.168Z,100.00
2023-03-08T22:41:24.885Z,100.00
2023-03-08T22:43:53.757Z,100.00
2023-03-08T22:46:27.412Z,100.00
2023-03-08T22:48:58.216Z,100.00
2023-03-08T22:51:28.401Z,100.00
2023-03-08T22:53:56.841Z,100.00
2023-03-08T22:56:30.292Z,100.00
2023-03-08T22:58:58.407Z,100.00
2023-03-08T23:01:27.116Z,100.00
2023-03-08T23:03:57.223Z,100.00
2023-03-08T23:06:28.181Z,100.00
2023-03-08T23:09:00.607Z,100.00
2023-03-08T23:11:29.248Z,100.00
2023-03-08T23:13:58.017Z,100.00
2023-03-08T23:16:26.398Z,100.00
2023-03-08T23:18:54.811Z,100.00
2023-03-08T23:21:25.669Z,100.00
2023-03-08T23:23:57.649Z,100.00
2023-03-08T23:26:27.542Z,100.00
2023-03-08T23:28:57.071Z,100.00
2023-03-08T23:31:27.889Z,100.00
2023-03-08T23:33:56.989Z,100.00
2023-03-08T23:36:26.651Z,100.00
2023-03-08T23:38:55.337Z,100.00
2023-03-08T23:41:22.749Z,100.00
2023-03-08T23:43:54.624Z,100.00
2023-03-08T23:46:22.247Z,100.00
2023-03-08T23:48:57.585Z,100.00
2023-03-08T23:51:28.703Z,100.00
2023-03-08T23:53:59.033Z,100.00
2023-03-08T23:56:31.073Z,100.00
2023-03-08T23:59:01.417Z,100.00
